createdAt,value
2022-08-02T00:00:40.745Z,5.90
2022-08-02T00:03:11.308Z,5.70
2022-08-02T00:05:40.231Z,5.80
2022-08-02T00:08:08.865Z,5.50
2022-08-02T00:10:37.486Z,5.80
2022-08-02T00:13:05.441Z,5.70
2022-08-02T00:15:33.490Z,5.60
2022-08-02T00:18:01.523Z,5.60
2022-08-02T00:20:29.507Z,5.60
2022-08-02T00:22:57.640Z,6.20
2022-08-02T00:25:29.118Z,5.30
2022-08-02T00:27:57.204Z,5.50
2022-08-02T00:30:26.582Z,5.90
2022-08-02T00:32:54.487Z,6.20
2022-08-02T00:35:22.815Z,5.40
2022-08-02T00:37:51.088Z,5.90
2022-08-02T00:40:23.494Z,5.60
2022-08-02T00:43:08.338Z,5.50
2022-08-02T00:46:02.456Z,5.90
2022-08-02T00:48:27.035Z,6.10
2022-08-02T00:50:56.630Z,6.60
2022-08-02T00:53:24.650Z,5.20
2022-08-02T00:55:52.770Z,6.30
2022-08-02T00:58:20.864Z,6.30
2022-08-02T01:00:49.240Z,4.90
2022-08-02T01:03:17.591Z,6.20
2022-08-02T01:06:10.318Z,5.80
2022-08-02T01:08:33.822Z,6.30
2022-08-02T01:11:01.819Z,5.60
2022-08-02T01:13:29.902Z,6.10
2022-08-02T01:16:20.224Z,6.50
2022-08-02T01:18:53.480Z,6.70
2022-08-02T01:22:03.930Z,6.90
2022-08-02T01:25:16.360Z,6.00
2022-08-02T01:28:05.481Z,6.20
2022-08-02T01:30:35.295Z,6.10
2022-08-02T01:33:05.912Z,5.70
2022-08-02T01:35:51.123Z,5.90
2022-08-02T01:38:37.834Z,5.30
2022-08-02T01:41:09.928Z,5.80
2022-08-02T01:43:42.387Z,5.40
2022-08-02T01:46:13.981Z,5.00
2022-08-02T01:48:45.192Z,6.00
2022-08-02T01:51:17.026Z,5.80
2022-08-02T01:53:50.089Z,5.90
2022-08-02T01:56:20.097Z,7.30
2022-08-02T01:58:51.984Z,5.90
2022-08-02T02:01:22.499Z,5.40
2022-08-02T02:03:51.143Z,6.80
2022-08-02T02:06:20.838Z,6.70
2022-08-02T02:08:50.694Z,6.40
2022-08-02T02:12:08.695Z,5.60
2022-08-02T02:14:08.514Z,6.40
2022-08-02T02:16:37.898Z,6.80
2022-08-02T02:19:07.804Z,6.00
2022-08-02T02:21:37.049Z,6.50
2022-08-02T02:24:09.119Z,5.70
2022-08-02T02:26:51.975Z,6.80
2022-08-02T02:29:25.167Z,5.30
2022-08-02T02:31:55.701Z,6.00
2022-08-02T02:34:38.583Z,6.10
2022-08-02T02:37:12.631Z,6.30
2022-08-02T02:39:43.289Z,6.00
2022-08-02T02:42:15.191Z,6.30
2022-08-02T02:44:44.892Z,6.40
2022-08-02T02:47:15.412Z,6.10
2022-08-02T02:49:46.336Z,6.10
2022-08-02T02:52:16.723Z,5.80
2022-08-02T02:54:48.772Z,6.20
2022-08-02T02:57:17.642Z,6.00
2022-08-02T02:59:49.682Z,5.80
2022-08-02T03:02:19.720Z,6.20
2022-08-02T03:04:56.959Z,6.00
2022-08-02T03:07:26.995Z,5.60
2022-08-02T03:09:55.538Z,5.90
2022-08-02T03:12:30.990Z,5.60
2022-08-02T03:15:13.169Z,4.80
2022-08-02T03:17:43.399Z,5.70
2022-08-02T03:20:15.293Z,5.50
2022-08-02T03:22:45.398Z,4.70
2022-08-02T03:25:14.916Z,6.00
2022-08-02T03:27:43.002Z,4.80
2022-08-02T03:30:13.212Z,5.90
2022-08-02T03:32:44.073Z,5.80
2022-08-02T03:35:18.588Z,5.10
2022-08-02T03:37:54.341Z,5.60
2022-08-02T03:40:23.821Z,5.40
2022-08-02T03:42:52.425Z,5.70
2022-08-02T03:45:21.051Z,4.80
2022-08-02T03:47:50.490Z,5.40
2022-08-02T03:50:20.144Z,4.90
2022-08-02T03:52:48.743Z,5.10
2022-08-02T03:55:17.101Z,5.00
2022-08-02T03:57:45.373Z,5.50
2022-08-02T04:00:19.229Z,4.90
2022-08-02T04:02:48.334Z,5.30
2022-08-02T04:05:17.912Z,4.60
2022-08-02T04:08:03.580Z,5.20
2022-08-02T04:10:57.877Z,5.40
2022-08-02T04:13:35.670Z,5.20
2022-08-02T04:16:19.173Z,4.80
2022-08-02T04:18:55.719Z,5.40
2022-08-02T04:21:50.077Z,5.30
2022-08-02T04:24:25.274Z,5.10
2022-08-02T04:26:57.878Z,4.70
2022-08-02T04:29:36.702Z,4.60
2022-08-02T04:32:05.710Z,4.20
2022-08-02T04:34:33.816Z,5.00
2022-08-02T04:37:02.426Z,4.60
2022-08-02T04:39:30.717Z,4.30
2022-08-02T04:42:44.594Z,4.20
2022-08-02T04:46:16.624Z,4.00
2022-08-02T04:49:05.021Z,4.00
2022-08-02T04:52:01.713Z,3.60
2022-08-02T04:54:51.283Z,3.70
2022-08-02T04:57:53.024Z,3.90
2022-08-02T05:00:48.771Z,2.90
2022-08-02T05:03:36.692Z,3.70
2022-08-02T05:06:19.125Z,3.30
2022-08-02T05:09:01.559Z,4.00
2022-08-02T05:11:55.030Z,3.60
2022-08-02T05:14:53.333Z,3.30
2022-08-02T05:17:47.845Z,3.60
2022-08-02T05:20:39.332Z,3.60
2022-08-02T05:23:32.964Z,3.40
2022-08-02T05:26:17.666Z,2.90
2022-08-02T05:29:06.971Z,3.50
2022-08-02T05:31:48.226Z,3.60
2022-08-02T05:34:29.187Z,3.70
2022-08-02T05:37:08.995Z,3.30
2022-08-02T05:39:56.438Z,2.90
2022-08-02T05:42:48.357Z,4.20
2022-08-02T05:45:29.935Z,3.30
2022-08-02T05:48:14.551Z,3.70
2022-08-02T05:51:01.213Z,3.70
2022-08-02T05:54:19.746Z,3.30
2022-08-02T05:57:43.212Z,2.90
2022-08-02T06:00:49.068Z,2.90
2022-08-02T06:03:37.636Z,3.30
2022-08-02T06:06:27.839Z,2.80
2022-08-02T06:09:27.299Z,2.50
2022-08-02T06:12:17.144Z,2.80
2022-08-02T06:15:05.810Z,2.60
2022-08-02T06:17:51.885Z,2.50
2022-08-02T06:20:35.855Z,2.00
2022-08-02T06:23:31.561Z,2.10
2022-08-02T06:26:09.088Z,2.40
2022-08-02T06:28:49.543Z,2.00
2022-08-02T06:31:39.665Z,2.10
2022-08-02T06:34:49.237Z,2.00
2022-08-02T06:38:24.950Z,2.00
2022-08-02T06:41:07.585Z,1.60
2022-08-02T06:47:39.984Z,1.80
2022-08-02T06:50:29.640Z,2.00
2022-08-02T06:53:08.055Z,1.90
2022-08-02T06:55:53.431Z,1.90
2022-08-02T06:58:46.599Z,1.90
2022-08-02T07:01:38.823Z,2.30
2022-08-02T07:04:34.945Z,2.00
2022-08-02T07:07:11.245Z,2.40
2022-08-02T07:09:56.998Z,1.50
2022-08-02T07:12:44.009Z,2.20
2022-08-02T07:16:04.003Z,2.20
2022-08-02T07:19:03.723Z,2.20
2022-08-02T07:21:57.869Z,1.80
2022-08-02T07:24:55.848Z,2.20
2022-08-02T07:27:42.150Z,2.10
2022-08-02T07:30:45.363Z,1.70
2022-08-02T07:33:39.035Z,1.70
2022-08-02T07:36:22.789Z,1.20
2022-08-02T07:39:39.284Z,1.10
2022-08-02T07:42:41.988Z,1.60
2022-08-02T07:45:57.130Z,1.40
2022-08-02T07:49:20.111Z,1.50
2022-08-02T07:52:57.262Z,2.70
2022-08-02T07:56:31.860Z,1.60
2022-08-02T07:59:28.410Z,1.50
2022-08-02T08:02:29.277Z,1.30
2022-08-02T08:05:29.384Z,1.40
2022-08-02T08:08:31.154Z,1.50
2022-08-02T08:11:41.282Z,1.50
2022-08-02T08:15:20.707Z,1.30
2022-08-02T08:19:00.399Z,1.40
2022-08-02T08:22:19.996Z,1.40
2022-08-02T08:25:16.594Z,1.60
2022-08-02T08:28:52.888Z,1.90
2022-08-02T08:32:25.220Z,1.50
2022-08-02T08:35:07.528Z,1.10
2022-08-02T08:38:18.586Z,1.60
2022-08-02T08:41:18.313Z,1.40
2022-08-02T08:44:42.224Z,1.80
2022-08-02T08:48:30.614Z,1.30
2022-08-02T08:52:11.716Z,1.40
2022-08-02T08:55:34.719Z,1.90
2022-08-02T08:58:49.212Z,1.50
2022-08-02T09:02:33.620Z,1.60
2022-08-02T09:06:07.038Z,2.00
2022-08-02T09:08:50.548Z,1.90
2022-08-02T09:12:09.017Z,1.50
2022-08-02T09:15:07.507Z,1.50
2022-08-02T09:18:56.901Z,0.70
2022-08-02T09:22:05.003Z,1.60
2022-08-02T09:25:23.163Z,1.30
2022-08-02T09:29:01.709Z,1.50
2022-08-02T09:32:21.082Z,1.60
2022-08-02T09:36:06.665Z,1.10
2022-08-02T09:39:33.956Z,2.10
2022-08-02T09:42:22.438Z,1.60
2022-08-02T09:45:50.732Z,1.80
2022-08-02T09:49:35.641Z,1.10
2022-08-02T09:53:10.479Z,1.60
2022-08-02T09:56:34.314Z,1.10
2022-08-02T10:00:43.365Z,1.10
2022-08-02T10:05:01.756Z,1.40
2022-08-02T10:07:54.311Z,1.30
2022-08-02T10:10:45.365Z,1.70
2022-08-02T10:13:47.879Z,1.20
2022-08-02T10:21:12.243Z,1.60
2022-08-02T10:24:51.405Z,1.60
2022-08-02T10:28:07.810Z,1.10
2022-08-02T10:31:36.795Z,1.30
2022-08-02T10:39:56.876Z,1.90
2022-08-02T10:43:32.571Z,1.50
2022-08-02T10:47:12.457Z,1.80
2022-08-02T10:51:02.925Z,1.90
2022-08-02T10:54:44.200Z,1.50
2022-08-02T10:58:10.709Z,2.40
2022-08-02T11:01:38.978Z,1.50
2022-08-02T11:04:56.867Z,1.80
2022-08-02T11:09:00.985Z,1.80
2022-08-02T11:13:22.223Z,1.80
2022-08-02T11:16:23.876Z,1.70
2022-08-02T11:20:13.469Z,2.00
2022-08-02T11:23:48.313Z,2.00
2022-08-02T11:27:36.499Z,2.20
2022-08-02T11:31:25.490Z,1.90
2022-08-02T11:35:07.837Z,1.40
2022-08-02T11:37:47.353Z,1.90
2022-08-02T11:41:11.412Z,1.80
2022-08-02T11:44:26.739Z,1.70
2022-08-02T11:47:14.282Z,2.00
2022-08-02T11:50:48.079Z,1.70
2022-08-02T11:53:27.743Z,1.70
2022-08-02T11:56:25.263Z,1.90
2022-08-02T11:59:45.062Z,1.60
2022-08-02T12:02:56.877Z,2.30
2022-08-02T12:06:42.694Z,2.00
2022-08-02T12:10:20.738Z,1.70
2022-08-02T12:14:22.467Z,1.80
2022-08-02T12:18:22.614Z,2.00
2022-08-02T12:21:30.362Z,1.70
2022-08-02T12:24:54.905Z,2.10
2022-08-02T12:28:23.144Z,2.20
2022-08-02T12:32:04.496Z,2.20
2022-08-02T12:35:42.967Z,1.90
2022-08-02T12:38:46.327Z,1.70
2022-08-02T12:42:14.015Z,1.90
2022-08-02T12:45:07.991Z,1.90
2022-08-02T12:48:38.048Z,2.10
2022-08-02T12:51:56.440Z,2.00
2022-08-02T12:56:01.426Z,1.90
2022-08-02T12:59:27.840Z,1.90
2022-08-02T13:04:07.294Z,1.60
2022-08-02T13:07:11.021Z,1.80
2022-08-02T13:10:02.501Z,2.20
2022-08-02T13:13:37.940Z,1.90
2022-08-02T13:16:33.227Z,1.70
2022-08-02T13:20:15.129Z,1.80
2022-08-02T13:23:57.670Z,1.70
2022-08-02T13:26:56.105Z,1.50
2022-08-02T13:29:50.244Z,1.60
2022-08-02T13:33:30.786Z,1.70
2022-08-02T13:37:10.606Z,1.80
2022-08-02T13:40:21.211Z,1.60
2022-08-02T13:43:53.433Z,1.60
2022-08-02T13:46:58.726Z,2.00
2022-08-02T13:49:50.821Z,1.60
2022-08-02T13:53:27.310Z,1.70
2022-08-02T13:56:06.629Z,1.90
2022-08-02T13:59:01.096Z,2.00
2022-08-02T14:02:23.202Z,2.10
2022-08-02T14:05:38.614Z,1.50
2022-08-02T14:08:43.798Z,1.80
2022-08-02T14:12:05.818Z,2.30
2022-08-02T14:15:49.263Z,2.00
2022-08-02T14:19:02.875Z,2.20
2022-08-02T14:22:12.890Z,1.90
2022-08-02T14:26:02.529Z,2.10
2022-08-02T14:29:05.134Z,1.90
2022-08-02T14:32:17.505Z,2.00
2022-08-02T14:36:00.158Z,1.90
2022-08-02T14:39:02.143Z,1.90
2022-08-02T14:42:17.302Z,1.80
2022-08-02T14:45:13.074Z,2.30
2022-08-02T14:48:05.925Z,2.50
2022-08-02T14:50:55.740Z,2.10
2022-08-02T14:54:36.054Z,2.10
2022-08-02T14:58:07.926Z,1.80
2022-08-02T15:01:57.290Z,2.30
2022-08-02T15:05:51.150Z,2.10
2022-08-02T15:13:53.649Z,2.30
2022-08-02T15:18:07.201Z,1.90
2022-08-02T15:21:54.727Z,2.00
2022-08-02T15:25:47.112Z,2.50
2022-08-02T15:29:36.319Z,2.00
2022-08-02T15:33:27.957Z,2.40
2022-08-02T15:36:43.045Z,2.60
2022-08-02T15:40:32.662Z,2.20
2022-08-02T15:44:20.616Z,2.20
2022-08-02T15:57:23.207Z,2.30
2022-08-02T16:00:31.470Z,2.20
2022-08-02T16:03:58.888Z,2.30
2022-08-02T16:07:11.771Z,1.90
2022-08-02T16:10:15.168Z,2.10
2022-08-02T16:13:31.071Z,2.10
2022-08-02T16:16:24.999Z,2.50
2022-08-02T16:18:55.285Z,1.90
2022-08-02T16:21:24.051Z,2.10
2022-08-02T16:24:01.539Z,2.00
2022-08-02T16:26:34.329Z,2.20
2022-08-02T16:29:03.511Z,2.30
2022-08-02T16:31:42.642Z,2.50
2022-08-02T16:34:12.702Z,2.20
2022-08-02T16:37:03.615Z,2.30
2022-08-02T16:39:54.405Z,2.00
2022-08-02T16:42:25.646Z,2.20
2022-08-02T16:44:56.813Z,1.90
2022-08-02T16:47:43.298Z,2.10
2022-08-02T16:50:16.854Z,2.00
2022-08-02T16:52:57.756Z,1.90
2022-08-02T16:55:25.874Z,2.10
2022-08-02T16:58:22.635Z,1.80
2022-08-02T17:01:03.436Z,2.00
2022-08-02T17:03:56.985Z,2.20
2022-08-02T17:06:26.051Z,2.40
2022-08-02T17:08:58.220Z,2.30
2022-08-02T17:11:41.452Z,1.80
2022-08-02T17:14:13.010Z,2.20
2022-08-02T17:16:40.848Z,2.00
2022-08-02T17:19:15.625Z,2.10
2022-08-02T17:21:57.573Z,2.20
2022-08-02T17:24:39.859Z,2.50
2022-08-02T17:27:30.610Z,3.30
2022-08-02T17:30:04.269Z,3.20
2022-08-02T17:33:20.932Z,2.60
2022-08-02T17:36:08.333Z,2.40
2022-08-02T17:39:07.576Z,3.10
2022-08-02T17:42:40.516Z,3.40
2022-08-02T17:46:21.458Z,3.70
2022-08-02T17:49:52.570Z,3.30
2022-08-02T17:53:23.089Z,2.90
2022-08-02T17:57:11.207Z,2.60
2022-08-02T18:00:04.378Z,2.40
2022-08-02T18:02:52.766Z,3.10
2022-08-02T18:05:39.701Z,2.70
2022-08-02T18:08:43.145Z,4.30
2022-08-02T18:12:04.842Z,4.60
2022-08-02T18:15:15.572Z,6.80
2022-08-02T18:17:46.461Z,7.00
2022-08-02T18:20:14.240Z,7.40
2022-08-02T18:22:43.098Z,7.00
2022-08-02T18:25:11.737Z,6.40
2022-08-02T18:27:58.970Z,7.80
2022-08-02T18:30:28.469Z,8.50
2022-08-02T18:33:58.147Z,8.10
2022-08-02T18:35:43.208Z,7.60
2022-08-02T18:38:11.591Z,6.70
2022-08-02T18:40:51.553Z,5.40
2022-08-02T18:43:23.693Z,4.90
2022-08-02T18:46:05.687Z,5.30
2022-08-02T18:48:50.558Z,4.80
2022-08-02T18:51:22.525Z,4.50
2022-08-02T18:54:12.108Z,4.30
2022-08-02T18:56:51.433Z,5.00
2022-08-02T18:59:51.423Z,4.60
2022-08-02T19:02:20.693Z,4.90
2022-08-02T19:05:53.556Z,4.80
2022-08-02T19:08:36.687Z,5.50
2022-08-02T19:11:12.491Z,4.80
2022-08-02T19:13:43.339Z,5.00
2022-08-02T19:16:13.973Z,4.50
2022-08-02T19:18:42.926Z,4.90
2022-08-02T19:21:10.504Z,4.90
2022-08-02T19:23:37.818Z,5.20
2022-08-02T19:26:22.472Z,5.90
2022-08-02T19:28:57.830Z,5.60
2022-08-02T19:31:34.685Z,6.00
2022-08-02T19:34:21.267Z,6.10
2022-08-02T19:37:13.247Z,6.30
2022-08-02T19:39:56.778Z,6.40
2022-08-02T19:42:29.463Z,6.20
2022-08-02T19:45:02.274Z,7.80
2022-08-02T19:47:38.511Z,6.40
2022-08-02T19:50:14.737Z,6.20
2022-08-02T19:52:46.901Z,6.60
2022-08-02T19:55:59.803Z,6.50
2022-08-02T19:58:09.753Z,7.10
2022-08-02T20:00:42.498Z,7.90
2022-08-02T20:03:15.904Z,7.60
2022-08-02T20:05:43.270Z,6.60
2022-08-02T20:08:31.552Z,7.40
2022-08-02T20:11:04.310Z,9.10
2022-08-02T20:13:47.280Z,8.60
2022-08-02T20:16:27.996Z,8.90
2022-08-02T20:19:14.184Z,8.50
2022-08-02T20:21:48.330Z,8.90
2022-08-02T20:24:22.497Z,10.10
2022-08-02T20:26:54.069Z,8.30
2022-08-02T20:29:42.797Z,7.40
2022-08-02T20:32:08.598Z,8.10
2022-08-02T20:34:36.223Z,9.00
2022-08-02T20:37:56.072Z,9.70
2022-08-02T20:39:51.759Z,8.70
2022-08-02T20:42:23.817Z,8.80
2022-08-02T20:44:55.835Z,9.40
2022-08-02T20:47:27.562Z,9.30
2022-08-02T20:50:17.075Z,8.90
2022-08-02T20:52:44.237Z,8.80
2022-08-02T20:55:17.178Z,8.50
2022-08-02T20:58:00.020Z,8.60
2022-08-02T21:00:30.413Z,9.90
2022-08-02T21:03:02.646Z,10.50
2022-08-02T21:05:54.518Z,10.70
2022-08-02T21:08:19.976Z,11.50
2022-08-02T21:10:52.374Z,9.90
2022-08-02T21:16:27.224Z,8.50
2022-08-02T21:18:55.329Z,8.10
2022-08-02T21:21:22.074Z,8.80
2022-08-02T21:23:54.818Z,8.70
2022-08-02T21:26:27.991Z,9.40
2022-08-02T21:28:55.813Z,9.50
2022-08-02T21:31:22.398Z,10.20
2022-08-02T21:33:58.529Z,9.10
2022-08-02T21:36:30.674Z,8.00
2022-08-02T21:39:09.242Z,8.00
2022-08-02T21:41:46.576Z,8.50
2022-08-02T21:44:16.224Z,8.50
2022-08-02T21:46:45.241Z,8.40
2022-08-02T21:49:13.645Z,8.20
2022-08-02T21:51:42.845Z,7.80
2022-08-02T21:54:17.628Z,7.80
2022-08-02T21:56:55.592Z,7.90
2022-08-02T21:59:25.977Z,7.50
2022-08-02T22:01:56.837Z,7.90
2022-08-02T22:04:27.653Z,7.60
2022-08-02T22:06:55.306Z,8.10
2022-08-02T22:09:42.351Z,8.40
2022-08-02T22:12:16.699Z,8.00
2022-08-02T22:14:54.944Z,7.90
2022-08-02T22:17:49.964Z,7.30
2022-08-02T22:20:18.238Z,7.70
2022-08-02T22:22:52.482Z,7.60
2022-08-02T22:25:27.252Z,7.60
2022-08-02T22:28:39.412Z,7.50
2022-08-02T22:30:56.964Z,7.00
2022-08-02T22:33:47.151Z,7.30
2022-08-02T22:36:35.923Z,6.90
2022-08-02T22:42:06.462Z,7.10
2022-08-02T22:44:34.667Z,7.70
2022-08-02T22:47:03.965Z,7.60
2022-08-02T22:49:38.538Z,7.80
2022-08-02T22:52:21.401Z,7.40
2022-08-02T22:54:48.197Z,7.30
2022-08-02T22:57:15.036Z,7.50
2022-08-02T22:59:09.600Z,7.30
2022-08-02T22:59:41.985Z,7.90
2022-08-02T23:02:09.781Z,7.60
2022-08-02T23:04:36.814Z,6.70
2022-08-02T23:07:04.100Z,7.10
2022-08-02T23:09:30.725Z,6.70
2022-08-02T23:11:57.575Z,7.40
2022-08-02T23:14:24.220Z,6.80
2022-08-02T23:17:09.331Z,7.00
2022-08-02T23:19:50.991Z,8.30
2022-08-02T23:22:21.206Z,6.80
2022-08-02T23:24:55.020Z,7.30
2022-08-02T23:27:21.866Z,7.50
2022-08-02T23:29:48.457Z,7.30
2022-08-02T23:32:15.255Z,7.30
2022-08-02T23:34:42.516Z,6.60
2022-08-02T23:37:09.380Z,7.10
2022-08-02T23:39:36.186Z,6.70
2022-08-02T23:42:03.826Z,7.20
2022-08-02T23:44:30.570Z,7.30
2022-08-02T23:46:57.238Z,6.80
2022-08-02T23:49:24.151Z,6.60
2022-08-02T23:51:51.621Z,7.20
2022-08-02T23:54:19.284Z,6.40
2022-08-02T23:56:46.206Z,6.20
2022-08-02T23:59:15.301Z,6.40
